Time;durP1;ratioP1;P1;durP2;ratioP2;P2;SDS_P1;SDS_P2;PMS_P1;PMS_P2;Temp;Humidity;BMP_temperature;BMP_pressure;BME280_temperature;BME280_humidity;BME280_pressure;Samples;Min_cycle;Max_cycle;Signal;HPM_P1;HPM_P2
2021/03/25 00:04:27;;;;;;;30.17;21.00;;;;;;;5.36;56.09;98156.09;10117305;29;20045;-82
2021/03/25 00:09:47;;;;;;;32.75;23.20;;;;;;;5.09;56.44;98152.88;10130447;29;20127;-82
2021/03/25 00:15:08;;;;;;;39.55;25.17;;;;;;;4.89;56.83;98146.16;10114536;29;20056;-82
2021/03/25 00:20:28;;;;;;;42.05;28.38;;;;;;;4.71;57.15;98146.44;10112297;29;20048;-82
2021/03/25 00:25:51;;;;;;;39.00;26.40;;;;;;;4.61;57.79;98148.94;10129915;29;20079;-82
2021/03/25 00:31:11;;;;;;;40.17;25.27;;;;;;;4.62;57.72;98147.66;10132405;29;20061;-81
2021/03/25 00:36:31;;;;;;;36.08;23.88;;;;;;;4.63;58.24;98145.63;10145735;29;20057;-82
2021/03/25 00:41:51;;;;;;;32.25;20.15;;;;;;;4.64;58.65;98138.84;10131539;29;20115;-81
2021/03/25 00:47:11;;;;;;;29.48;19.02;;;;;;;4.66;58.70;98137.00;10132146;29;20052;-82
2021/03/25 00:52:31;;;;;;;27.70;18.05;;;;;;;4.71;58.53;98133.34;10145696;29;20068;-82
2021/03/25 00:57:51;;;;;;;26.25;18.13;;;;;;;4.71;58.43;98138.88;10145425;29;20489;-82
2021/03/25 01:03:11;;;;;;;25.83;18.00;;;;;;;4.69;58.30;98135.91;10131081;29;20055;-81
2021/03/25 01:08:32;;;;;;;27.33;17.40;;;;;;;4.71;58.62;98140.91;10116442;29;20104;-81
2021/03/25 01:13:55;;;;;;;25.73;16.63;;;;;;;4.75;59.39;98141.28;10131652;29;20050;-82
2021/03/25 01:19:29;;;;;;;29.35;16.50;;;;;;;4.80;59.06;98148.69;10142881;29;20056;-82
2021/03/25 01:24:50;;;;;;;26.38;16.95;;;;;;;4.78;58.75;98143.69;10131283;29;20055;-82
2021/03/25 01:30:11;;;;;;;27.00;17.25;;;;;;;4.76;58.80;98137.97;10142187;29;20131;-81
2021/03/25 01:35:32;;;;;;;27.75;16.45;;;;;;;4.70;59.42;98140.16;10114317;29;20048;-81
2021/03/25 01:40:56;;;;;;;28.42;17.95;;;;;;;4.62;59.24;98144.91;10113829;29;20045;-81
2021/03/25 01:46:33;;;;;;;26.00;18.02;;;;;;;4.57;59.52;98138.25;10124743;29;20072;-81
2021/03/25 01:52:19;;;;;;;27.20;17.00;;;;;;;4.55;59.62;98145.63;10115213;29;20040;-81
2021/03/25 01:58:07;;;;;;;24.35;17.20;;;;;;;4.52;59.50;98143.94;10163540;29;20072;-81
2021/03/25 02:03:45;;;;;;;23.90;16.88;;;;;;;4.52;59.59;98135.63;10150733;29;20049;-82
2021/03/25 02:09:36;;;;;;;25.83;18.23;;;;;;;4.47;59.32;98134.50;10126683;29;20044;-81
2021/03/25 02:15:43;;;;;;;32.13;17.80;;;;;;;4.36;59.83;98134.09;10142884;29;20048;-82
2021/03/25 02:21:19;;;;;;;28.13;18.50;;;;;;;4.25;59.60;98135.13;10148440;29;20053;-80
2021/03/25 02:27:15;;;;;;;26.30;17.75;;;;;;;4.15;60.25;98132.09;10136815;29;20045;-81
2021/03/25 02:32:57;;;;;;;28.25;17.75;;;;;;;4.06;60.49;98135.34;10139504;29;20052;-82
2021/03/25 02:38:49;;;;;;;27.13;18.00;;;;;;;3.99;60.46;98141.56;10129190;29;20045;-82
2021/03/25 02:44:19;;;;;;;27.33;18.13;;;;;;;3.90;60.19;98137.25;10122279;29;20059;-81
2021/03/25 02:49:50;;;;;;;25.83;17.58;;;;;;;3.83;60.40;98134.41;10132292;29;20464;-80
2021/03/25 02:55:12;;;;;;;27.52;17.90;;;;;;;3.77;61.23;98131.06;10135124;29;20044;-80
2021/03/25 03:00:44;;;;;;;26.88;17.02;;;;;;;3.66;60.68;98127.28;10120595;29;20052;-81
2021/03/25 03:06:06;;;;;;;32.15;17.70;;;;;;;3.63;61.25;98128.34;10119511;29;20083;-80
2021/03/25 03:11:36;;;;;;;27.33;16.83;;;;;;;3.61;62.27;98133.69;10133475;29;20052;-82
2021/03/25 03:17:29;;;;;;;28.40;17.08;;;;;;;3.63;61.92;98124.88;10118841;29;20056;-81
2021/03/25 03:23:15;;;;;;;29.77;17.13;;;;;;;3.61;61.63;98130.94;10138228;29;20049;-81
2021/03/25 03:28:42;;;;;;;25.02;17.38;;;;;;;3.65;61.73;98128.56;10116821;29;20180;-82
2021/03/25 03:34:33;;;;;;;26.23;17.05;;;;;;;3.65;61.55;98125.78;10121274;29;20052;-81
2021/03/25 03:39:58;;;;;;;25.67;17.17;;;;;;;3.67;62.05;98128.03;10118451;29;20045;-81
2021/03/25 03:45:36;;;;;;;27.75;17.25;;;;;;;3.62;61.64;98120.63;10119517;29;20052;-81
2021/03/25 03:51:16;;;;;;;26.85;17.30;;;;;;;3.61;62.57;98119.88;10120483;29;20047;-80
2021/03/25 03:57:15;;;;;;;27.60;16.70;;;;;;;3.61;61.88;98119.88;10117980;29;20052;-81
2021/03/25 04:03:02;;;;;;;27.20;17.57;;;;;;;3.61;61.85;98119.88;10137492;29;20052;-82
2021/03/25 04:09:08;;;;;;;26.45;16.85;;;;;;;3.52;62.18;98127.88;10137435;29;20067;-81
2021/03/25 04:15:09;;;;;;;25.75;16.98;;;;;;;3.42;62.28;98136.63;10134362;29;20055;-80
2021/03/25 04:20:45;;;;;;;26.45;17.77;;;;;;;3.34;62.31;98129.56;10123310;29;20056;-81
2021/03/25 04:27:17;;;;;;;28.02;16.88;;;;;;;3.24;62.95;98118.22;10125672;29;20108;-81
2021/03/25 04:32:37;;;;;;;29.20;18.73;;;;;;;3.15;62.74;98124.19;9937567;29;20066;-81
2021/03/25 04:37:58;;;;;;;31.63;18.65;;;;;;;3.06;62.64;98125.41;10118928;29;20120;-80
2021/03/25 04:43:19;;;;;;;29.20;18.15;;;;;;;3.04;62.99;98125.19;10134151;29;20057;-81
2021/03/25 04:48:39;;;;;;;25.92;16.70;;;;;;;3.04;63.10;98125.19;10120491;29;20044;-81
2021/03/25 04:54:26;;;;;;;25.73;17.60;;;;;;;3.04;63.39;98130.72;10122798;29;20044;-81
2021/03/25 04:59:47;;;;;;;31.33;17.63;;;;;;;3.10;63.56;98133.34;10132831;29;20045;-81
2021/03/25 05:05:08;;;;;;;25.02;16.88;;;;;;;3.22;63.42;98133.84;10108750;29;20051;-80
2021/03/25 05:10:53;;;;;;;35.95;17.80;;;;;;;3.43;63.09;98132.59;10127766;29;20083;-80
2021/03/25 05:16:51;;;;;;;25.92;16.45;;;;;;;3.77;63.26;98137.34;10092609;29;20108;-81
2021/03/25 05:22:24;;;;;;;28.23;17.30;;;;;;;4.25;63.19;98137.88;10111844;29;20049;-81
2021/03/25 05:27:57;;;;;;;26.48;17.27;;;;;;;4.72;62.22;98143.09;10098489;29;20060;-81
2021/03/25 05:33:20;;;;;;;24.27;16.38;;;;;;;5.27;62.21;98153.84;10092063;29;20108;-83
2021/03/25 05:38:39;;;;;;;26.45;16.85;;;;;;;5.84;61.72;98156.34;10101416;29;20056;-80
2021/03/25 05:44:14;;;;;;;26.52;18.55;;;;;;;6.54;60.50;98164.09;10085614;29;20049;-78
2021/03/25 05:49:59;;;;;;;;;;;;;;;7.44;59.66;98160.84;10121130;29;20441;-80
2021/03/25 05:55:40;;;;;;;29.67;19.30;;;;;;;9.44;58.63;98161.19;10146248;29;19930;-81
2021/03/25 06:01:13;;;;;;;33.58;22.98;;;;;;;11.93;56.11;98171.81;10114291;29;20053;-81
2021/03/25 06:07:04;;;;;;;34.70;22.08;;;;;;;16.44;54.98;98175.78;10146083;29;20138;-81
2021/03/25 06:13:04;;;;;;;35.20;23.70;;;;;;;21.34;47.90;98189.97;10142781;29;20056;-81
2021/03/25 06:19:00;;;;;;;34.55;24.20;;;;;;;24.68;38.88;98197.84;10124686;29;20044;-78
2021/03/25 06:25:15;;;;;;;30.60;23.13;;;;;;;28.28;32.51;98198.59;10135633;29;20048;-78
2021/03/25 06:31:27;;;;;;;28.17;22.55;;;;;;;31.25;25.17;98218.47;10136301;29;20064;-79
2021/03/25 06:37:03;;;;;;;25.33;20.90;;;;;;;32.03;20.82;98222.09;10111717;29;20060;-79
2021/03/25 06:42:42;;;;;;;28.70;21.30;;;;;;;34.68;16.32;98218.72;10122744;29;20060;-78
2021/03/25 06:48:23;;;;;;;24.25;20.77;;;;;;;35.15;15.11;98214.09;10118438;29;20048;-78
2021/03/25 06:53:42;;;;;;;;;;;;;;;36.79;12.68;98219.91;10122377;29;20056;-77
2021/03/25 06:59:04;;;;;;;15.65;13.80;;;;;;;37.20;11.84;98228.13;10095822;29;19979;-77
2021/03/25 07:04:26;;;;;;;15.15;13.60;;;;;;;39.12;10.65;98216.97;10108993;29;20045;-77
2021/03/25 07:09:46;;;;;;;15.43;12.65;;;;;;;40.37;9.79;98226.34;10109141;29;20477;-77
2021/03/25 07:15:07;;;;;;;15.70;13.70;;;;;;;42.41;8.24;98222.97;10108750;29;20104;-78
2021/03/25 07:20:36;;;;;;;15.98;13.25;;;;;;;44.87;7.01;98226.19;10108985;29;20493;-76
2021/03/25 07:25:56;;;;;;;15.10;13.30;;;;;;;44.91;6.33;98217.16;10108684;29;20051;-77
2021/03/25 07:31:15;;;;;;;18.05;15.80;;;;;;;47.02;5.34;98228.53;10105534;29;20527;-77
2021/03/25 07:36:50;;;;;;;23.77;18.17;;;;;;;47.68;4.93;98215.53;10141405;29;20124;-76
2021/03/25 07:42:10;;;;;;;25.60;18.58;;;;;;;48.21;4.59;98207.78;10114494;29;20041;-79
2021/03/25 07:47:33;;;;;;;19.63;17.40;;;;;;;48.60;4.12;98217.25;10111583;29;20037;-80
2021/03/25 07:52:52;;;;;;;22.27;18.90;;;;;;;48.65;3.87;98219.06;10111945;29;20072;-79
2021/03/25 07:58:35;;;;;;;26.42;18.60;;;;;;;50.03;3.56;98224.69;10124552;29;20048;-77
2021/03/25 08:03:57;;;;;;;27.92;18.85;;;;;;;50.15;3.30;98210.38;10116439;29;20400;-77
2021/03/25 08:09:17;;;;;;;22.52;17.77;;;;;;;49.22;3.15;98208.47;10115307;29;20044;-78
2021/03/25 08:14:37;;;;;;;23.27;18.65;;;;;;;47.45;3.67;98210.56;10115098;29;20048;-77
2021/03/25 08:20:39;;;;;;;22.27;18.98;;;;;;;46.48;4.45;98210.25;10128109;29;20501;-76
2021/03/25 08:26:04;;;;;;;20.52;18.42;;;;;;;45.87;4.83;98213.78;10115506;29;20048;-77
2021/03/25 08:31:33;;;;;;;20.83;18.08;;;;;;;46.93;4.33;98206.34;10127046;29;20077;-76
2021/03/25 08:37:18;;;;;;;25.98;17.95;;;;;;;46.95;3.95;98203.22;10127402;29;20036;-76
2021/03/25 08:42:40;;;;;;;18.95;16.83;;;;;;;47.68;3.77;98200.75;10129727;29;20045;-78
2021/03/25 08:48:16;;;;;;;24.30;17.45;;;;;;;47.78;3.60;98197.00;10113876;29;20048;-77
2021/03/25 08:54:01;;;;;;;24.50;17.63;;;;;;;48.52;3.43;98194.94;10115070;29;20044;-76
2021/03/25 08:59:31;;;;;;;27.77;18.73;;;;;;;47.13;3.72;98184.16;10139831;29;20055;-77
2021/03/25 09:05:03;;;;;;;22.00;18.17;;;;;;;47.02;3.95;98195.34;10126968;29;20048;-79
2021/03/25 09:10:41;;;;;;;23.77;19.63;;;;;;;45.89;4.13;98190.03;10114525;29;20052;-78
2021/03/25 09:16:34;;;;;;;22.77;19.17;;;;;;;46.22;4.25;98195.09;10112756;29;20048;-77
2021/03/25 09:21:56;;;;;;;29.80;19.00;;;;;;;47.69;3.77;98192.56;10112530;29;20745;-76
2021/03/25 09:27:16;;;;;;;21.17;18.50;;;;;;;49.84;3.05;98192.91;10111299;29;20092;-76
2021/03/25 09:32:37;;;;;;;21.25;19.00;;;;;;;49.82;2.90;98195.38;10137721;29;20061;-76
2021/03/25 09:37:57;;;;;;;25.70;19.48;;;;;;;50.29;2.84;98177.19;10125286;29;20052;-77
2021/03/25 09:43:26;;;;;;;26.42;18.55;;;;;;;50.16;2.72;98176.84;10111787;29;20071;-77
2021/03/25 09:48:46;;;;;;;29.38;18.38;;;;;;;50.81;2.82;98180.00;10138612;29;20134;-77
2021/03/25 09:54:24;;;;;;;21.42;17.85;;;;;;;50.29;2.37;98165.31;10098331;29;20040;-77
2021/03/25 10:00:27;;;;;;;23.13;18.60;;;;;;;49.62;2.41;98167.44;10124641;29;20100;-76
2021/03/25 10:05:47;;;;;;;25.92;18.25;;;;;;;49.34;3.03;98165.31;10043554;29;20068;-76
2021/03/25 10:12:00;;;;;;;25.90;17.85;;;;;;;50.13;2.39;98166.72;10030922;29;20052;-77
2021/03/25 10:17:49;;;;;;;31.27;18.65;;;;;;;49.60;2.57;98162.34;9973502;29;20053;-78
2021/03/25 10:23:40;;;;;;;27.00;17.67;;;;;;;48.96;3.13;98160.31;10030332;29;20605;-78
2021/03/25 10:29:09;;;;;;;25.02;17.45;;;;;;;48.41;3.25;98149.94;10055952;29;20070;-79
2021/03/25 10:34:40;;;;;;;23.65;17.05;;;;;;;48.85;3.13;98151.56;10085551;29;20508;-77
2021/03/25 10:40:35;;;;;;;27.20;17.35;;;;;;;45.55;4.12;98140.72;10122764;29;20048;-77
2021/03/25 10:46:00;;;;;;;26.40;17.80;;;;;;;40.07;6.10;98140.72;10113483;29;20051;-77
2021/03/25 10:51:22;;;;;;;26.77;17.67;;;;;;;36.34;8.50;98131.09;10122356;29;20049;-86
2021/03/25 10:56:43;;;;;;;24.10;17.30;;;;;;;35.59;9.67;98133.91;10109447;29;20048;-87
2021/03/25 11:02:24;;;;;;;30.20;19.00;;;;;;;33.71;10.33;98122.88;10096216;29;20397;-89
2021/03/25 11:07:55;;;;;;;25.77;18.10;;;;;;;32.60;10.94;98117.44;10121190;29;20099;-78
2021/03/25 11:13:19;;;;;;;21.30;14.70;;;;;;;31.33;11.98;98108.81;10122084;29;20040;-77
2021/03/25 11:19:16;;;;;;;31.33;16.50;;;;;;;29.66;12.83;98106.16;10121968;29;20044;-81
2021/03/25 11:24:36;;;;;;;23.27;15.82;;;;;;;28.05;13.81;98095.22;10104822;29;20488;-84
2021/03/25 11:30:41;;;;;;;28.45;15.27;;;;;;;27.95;14.50;98092.31;10120885;29;20057;-79
2021/03/25 11:36:02;;;;;;;24.27;14.45;;;;;;;27.04;14.72;98086.75;10079345;29;20044;-84
2021/03/25 11:41:22;;;;;;;22.88;14.80;;;;;;;26.32;15.33;98088.16;10091504;29;20048;-84
2021/03/25 11:46:46;;;;;;;24.17;16.17;;;;;;;26.00;15.41;98088.53;10130882;29;20044;-84
2021/03/25 11:52:09;;;;;;;22.80;16.63;;;;;;;26.00;15.86;98082.09;10107772;29;20150;-84
2021/03/25 11:57:33;;;;;;;25.17;14.85;;;;;;;25.44;16.76;98082.75;10105567;29;20433;-82
2021/03/25 12:02:54;;;;;;;25.63;16.23;;;;;;;25.03;17.10;98080.03;10107625;29;20552;-81
2021/03/25 12:08:14;;;;;;;22.20;14.73;;;;;;;25.06;17.07;98075.06;10107072;29;20047;-81
2021/03/25 12:13:47;;;;;;;25.23;15.70;;;;;;;24.59;17.69;98060.00;10130987;29;20401;-80
2021/03/25 12:19:16;;;;;;;23.83;16.60;;;;;;;23.93;17.82;98060.94;10116531;29;20127;-80
2021/03/25 12:24:35;;;;;;;18.27;12.27;;;;;;;23.46;18.20;98050.66;10111723;29;20036;-82
2021/03/25 12:29:56;;;;;;;16.42;11.73;;;;;;;23.19;18.48;98048.63;10112989;29;20068;-82
2021/03/25 12:35:26;;;;;;;21.00;13.63;;;;;;;22.15;19.26;98037.50;10112498;29;20045;-82
2021/03/25 12:40:48;;;;;;;19.55;12.32;;;;;;;22.08;19.44;98035.91;10111338;29;20061;-82
2021/03/25 12:46:08;;;;;;;17.00;10.90;;;;;;;22.11;19.38;98029.63;10123714;29;20062;-82
2021/03/25 12:51:28;;;;;;;12.90;8.88;;;;;;;22.53;19.06;98026.41;10096091;29;20056;-82
2021/03/25 12:56:48;;;;;;;18.67;9.27;;;;;;;23.01;19.10;98018.34;10097591;29;20053;-80
2021/03/25 13:02:09;;;;;;;16.45;7.90;;;;;;;23.04;18.20;98019.81;10097433;29;20472;-82
2021/03/25 13:07:28;;;;;;;16.33;7.80;;;;;;;22.67;18.25;98011.81;10104979;29;20044;-83
2021/03/25 13:12:48;;;;;;;11.52;6.00;;;;;;;22.50;18.26;98008.56;10109961;29;20064;-81
2021/03/25 13:18:08;;;;;;;9.75;5.70;;;;;;;22.38;17.15;98007.53;10110433;29;20048;-83
2021/03/25 13:23:28;;;;;;;11.30;6.47;;;;;;;21.83;17.66;98003.97;10112683;29;20128;-80
2021/03/25 13:28:50;;;;;;;10.13;7.22;;;;;;;21.55;17.72;98000.34;10086412;29;20047;-80
2021/03/25 13:34:09;;;;;;;9.80;6.43;;;;;;;21.22;17.75;97990.84;10098496;29;20057;-80
2021/03/25 13:39:31;;;;;;;11.40;6.85;;;;;;;20.94;17.88;97987.88;10099416;29;20048;-81
2021/03/25 13:44:50;;;;;;;10.00;7.05;;;;;;;20.94;17.96;97996.41;10111953;29;20488;-81
2021/03/25 13:50:14;;;;;;;13.57;6.85;;;;;;;21.09;18.28;97997.53;10124539;29;20048;-86
2021/03/25 13:55:40;;;;;;;13.05;8.18;;;;;;;21.04;18.36;97987.47;10086461;29;20052;-80
2021/03/25 14:01:02;;;;;;;11.55;7.10;;;;;;;20.64;18.44;97981.97;10109923;29;20661;-82
2021/03/25 14:06:22;;;;;;;11.68;7.22;;;;;;;20.26;19.17;97984.25;10098233;29;20104;-82
2021/03/25 14:11:42;;;;;;;10.60;7.43;;;;;;;20.30;18.74;97973.78;10081594;29;20104;-80
2021/03/25 14:17:02;;;;;;;12.20;7.28;;;;;;;20.31;19.07;97971.69;10119789;29;20100;-89
2021/03/25 14:22:22;;;;;;;11.05;7.55;;;;;;;20.19;19.66;97985.44;10095048;29;20052;-84
2021/03/25 14:27:42;;;;;;;14.63;8.25;;;;;;;20.01;19.94;97971.38;10096801;29;20041;-85
2021/03/25 14:33:02;;;;;;;11.48;7.15;;;;;;;19.84;19.68;97966.53;10096738;29;20052;-86
2021/03/25 14:38:23;;;;;;;11.60;7.22;;;;;;;19.59;19.80;97968.53;10096644;29;20072;-79
2021/03/25 14:43:43;;;;;;;9.73;7.15;;;;;;;19.28;20.25;97968.75;10109691;29;20052;-75
2021/03/25 14:49:03;;;;;;;10.98;7.82;;;;;;;19.09;20.50;97962.41;10071420;29;20055;-76
2021/03/25 14:54:23;;;;;;;10.18;6.80;;;;;;;18.94;20.45;97962.56;10109281;29;20104;-75
2021/03/25 14:59:42;;;;;;;11.80;7.82;;;;;;;18.90;20.74;97956.72;10109665;29;20052;-78
2021/03/25 15:05:03;;;;;;;14.73;8.05;;;;;;;18.82;21.26;97960.00;10108954;29;20061;-79
2021/03/25 15:10:24;;;;;;;14.38;9.02;;;;;;;18.65;21.26;97957.91;10096362;29;20381;-77
2021/03/25 15:15:44;;;;;;;11.07;8.63;;;;;;;18.31;21.50;97955.09;10093298;29;20492;-79
2021/03/25 15:21:04;;;;;;;15.23;9.02;;;;;;;18.08;22.27;97950.66;10098461;29;20115;-78
2021/03/25 15:26:25;;;;;;;12.70;7.38;;;;;;;17.87;21.88;97942.72;10105701;29;20041;-78
2021/03/25 15:31:45;;;;;;;14.60;8.00;;;;;;;17.79;22.36;97953.66;10079932;29;20065;-79
2021/03/25 15:37:05;;;;;;;12.85;7.10;;;;;;;17.68;22.43;97953.19;10092844;29;20051;-79
2021/03/25 15:42:26;;;;;;;14.23;7.88;;;;;;;17.72;22.65;97949.84;10080756;29;20048;-78
2021/03/25 15:47:46;;;;;;;15.15;9.73;;;;;;;17.71;22.98;97942.75;10105212;29;20075;-78
2021/03/25 15:53:06;;;;;;;12.18;8.20;;;;;;;17.59;22.63;97942.19;10100178;29;20045;-78
2021/03/25 15:58:26;;;;;;;12.80;8.15;;;;;;;17.40;22.92;97943.50;10099554;29;20068;-78
2021/03/25 16:03:45;;;;;;;13.40;7.32;;;;;;;17.21;23.30;97941.97;10099591;29;20048;-79
2021/03/25 16:09:08;;;;;;;11.60;7.38;;;;;;;17.06;23.54;97940.59;10113771;29;20077;-80
2021/03/25 16:14:57;;;;;;;14.35;8.68;;;;;;;16.96;23.65;97942.22;10110791;29;20048;-79
2021/03/25 16:20:27;;;;;;;13.20;8.45;;;;;;;16.83;23.86;97943.75;10102980;29;20052;-78
2021/03/25 16:25:47;;;;;;;14.50;7.75;;;;;;;16.63;24.14;97946.34;10107586;29;20409;-79
2021/03/25 16:31:10;;;;;;;;;;;;;;;16.45;24.61;97948.28;10114109;29;20432;-79
2021/03/25 16:36:33;;;;;;;12.98;8.60;;;;;;;16.19;24.88;97944.91;10106239;29;19955;-80
2021/03/25 16:48:05;;;;;;;18.40;7.82;;;;;;;15.70;25.58;97948.13;10889587;23;20148;-80
2021/03/25 16:59:45;;;;;;;15.63;8.93;;;;;;;15.25;26.76;97953.50;11266958;23;20062;-82
2021/03/25 17:05:07;;;;;;;27.63;12.63;;;;;;;15.08;26.31;97955.47;10152846;29;20044;-75
2021/03/25 17:10:31;;;;;;;20.63;10.60;;;;;;;14.88;26.45;97957.94;10155437;29;20044;-75
2021/03/25 17:15:51;;;;;;;19.70;10.52;;;;;;;14.72;26.62;97961.94;10140301;29;20044;-78
2021/03/25 17:21:11;;;;;;;21.85;9.82;;;;;;;14.49;27.08;97957.19;10152987;29;20044;-78
2021/03/25 17:26:30;;;;;;;37.85;24.33;;;;;;;14.27;27.53;97968.59;10156509;29;20475;-79
2021/03/25 17:31:50;;;;;;;33.13;15.35;;;;;;;14.08;27.92;97973.78;10155724;29;20516;-78
2021/03/25 17:37:10;;;;;;;21.10;10.05;;;;;;;13.86;28.72;97976.75;10260999;23;20064;-78
2021/03/25 17:48:25;;;;;;;19.92;11.80;;;;;;;13.55;29.32;97982.66;10285227;23;20063;-79
2021/03/25 17:53:44;;;;;;;19.63;11.52;;;;;;;13.43;29.57;97987.53;10116999;29;20048;-78
2021/03/25 17:59:05;;;;;;;22.70;11.13;;;;;;;13.36;29.75;97994.84;10130985;29;20051;-77
2021/03/25 18:04:25;;;;;;;22.13;11.80;;;;;;;13.30;29.87;97997.28;10110126;29;20045;-80
2021/03/25 18:09:53;;;;;;;24.30;11.70;;;;;;;13.18;30.04;97996.50;10444546;23;20087;-82
2021/03/25 18:21:55;;;;;;;26.52;12.90;;;;;;;12.86;30.79;98007.19;10059546;29;19931;-80
2021/03/25 18:27:23;;;;;;;27.02;13.77;;;;;;;12.74;31.16;98012.03;10047389;29;20072;-79
2021/03/25 18:33:12;;;;;;;24.17;14.07;;;;;;;12.71;31.33;98018.09;10062567;29;20053;-79
2021/03/25 18:38:32;;;;;;;26.88;14.75;;;;;;;12.67;31.73;98017.84;10047355;29;20056;-79
2021/03/25 18:43:52;;;;;;;24.38;14.30;;;;;;;12.62;31.88;98022.44;10051686;29;20082;-80
2021/03/25 18:49:12;;;;;;;28.45;14.00;;;;;;;12.55;31.90;98026.22;10046541;29;20049;-78
2021/03/25 18:54:33;;;;;;;26.10;13.85;;;;;;;12.44;32.05;98024.06;10045902;29;20041;-78
2021/03/25 18:59:53;;;;;;;27.35;14.18;;;;;;;12.30;32.67;98029.50;10045411;29;20041;-75
2021/03/25 19:05:14;;;;;;;24.13;13.88;;;;;;;12.18;32.83;98049.03;10061854;29;20076;-77
2021/03/25 19:10:36;;;;;;;23.55;13.07;;;;;;;12.01;33.51;98057.66;10100990;29;20045;-78
2021/03/25 19:15:55;;;;;;;27.92;13.77;;;;;;;11.97;33.83;98046.94;10111540;29;20493;-78
2021/03/25 19:21:15;;;;;;;24.48;14.48;;;;;;;11.98;34.63;98050.47;10084353;29;20105;-79
2021/03/25 19:26:35;;;;;;;25.95;14.27;;;;;;;11.97;35.00;98057.41;10080314;29;20059;-81
2021/03/25 19:31:55;;;;;;;25.60;15.40;;;;;;;11.93;34.80;98054.31;10092595;29;20049;-78
2021/03/25 19:37:15;;;;;;;25.98;15.15;;;;;;;11.86;35.37;98058.03;10093326;29;20049;-79
2021/03/25 19:42:57;;;;;;;30.33;14.95;;;;;;;11.77;35.84;98056.72;10105750;29;20045;-79
2021/03/25 19:54:36;;;;;;;27.80;15.65;;;;;;;11.63;35.55;98053.72;12313777;23;20029;-82
2021/03/25 20:12:31;;;;;;;26.58;15.23;;;;;;;11.25;36.50;98067.81;10202599;23;20285;-76
2021/03/25 20:17:51;;;;;;;28.55;15.70;;;;;;;11.15;36.81;98074.16;10142219;29;20052;-76
2021/03/25 20:23:24;;;;;;;30.42;16.15;;;;;;;11.13;36.93;98081.69;10145547;29;20048;-77
2021/03/25 20:28:44;;;;;;;29.80;15.10;;;;;;;11.10;37.32;98080.81;10155275;29;20047;-77
2021/03/25 20:34:13;;;;;;;27.25;15.90;;;;;;;11.15;38.34;98087.41;10157233;29;20051;-78
2021/03/25 20:39:36;;;;;;;33.03;17.00;;;;;;;11.16;37.72;98097.25;10157258;29;20044;-83
2021/03/25 20:44:57;;;;;;;28.67;16.40;;;;;;;11.14;37.74;98086.69;10176177;29;20052;-80
2021/03/25 20:50:19;;;;;;;32.72;17.40;;;;;;;11.10;38.42;98094.03;10154214;29;20048;-78
2021/03/25 20:55:43;;;;;;;27.30;16.42;;;;;;;11.04;39.04;98094.34;10126261;29;20055;-79
2021/03/25 21:01:09;;;;;;;31.42;17.77;;;;;;;10.96;39.21;98096.56;10143783;29;20051;-80
2021/03/25 21:06:58;;;;;;;30.45;18.25;;;;;;;10.88;39.66;98102.28;10159073;29;20040;-79
2021/03/25 21:12:26;;;;;;;32.03;18.23;;;;;;;10.83;40.01;98100.53;10156913;29;20067;-79
2021/03/25 21:17:46;;;;;;;30.10;18.58;;;;;;;10.76;40.50;98104.22;10140964;29;20048;-78
2021/03/25 21:23:07;;;;;;;29.50;16.70;;;;;;;10.67;40.62;98102.16;10153343;29;20040;-78
2021/03/25 21:28:34;;;;;;;24.88;16.13;;;;;;;10.70;40.30;98091.84;10139640;29;20092;-77
2021/03/25 21:33:54;;;;;;;31.55;16.55;;;;;;;10.67;40.46;98081.88;10152732;29;20503;-80
2021/03/25 21:39:14;;;;;;;28.98;16.85;;;;;;;10.63;40.75;98095.56;10158465;29;20048;-80
2021/03/25 21:44:34;;;;;;;31.20;17.98;;;;;;;10.56;41.27;98081.16;10140244;29;20075;-79
2021/03/25 21:49:54;;;;;;;30.02;17.58;;;;;;;10.58;41.71;98083.34;10138896;29;20047;-79
2021/03/25 21:55:31;;;;;;;27.15;16.02;;;;;;;10.55;41.46;98082.47;10125443;29;20048;-80
2021/03/25 22:00:51;;;;;;;26.02;17.10;;;;;;;10.58;41.94;98074.97;10142230;29;20071;-80
2021/03/25 22:06:11;;;;;;;27.38;16.23;;;;;;;10.55;41.35;98079.69;10156918;29;20044;-79
2021/03/25 22:11:33;;;;;;;26.27;16.10;;;;;;;10.50;41.74;98083.47;10140718;29;20063;-80
2021/03/25 22:16:53;;;;;;;25.20;15.98;;;;;;;10.38;42.12;98079.06;10140327;29;20044;-80
2021/03/25 22:22:17;;;;;;;23.63;14.80;;;;;;;10.31;41.98;98075.09;10162071;29;20044;-80
2021/03/25 22:27:43;;;;;;;27.27;15.57;;;;;;;10.26;42.62;98076.88;10123027;29;20052;-80
2021/03/25 22:33:04;;;;;;;26.40;15.80;;;;;;;10.25;42.15;98085.81;10173481;29;20055;-86
2021/03/25 22:38:25;;;;;;;27.45;15.48;;;;;;;10.21;42.38;98097.38;10156511;29;20048;-80
2021/03/25 22:43:45;;;;;;;23.55;14.40;;;;;;;10.17;42.18;98079.59;10141682;29;20056;-78
2021/03/25 22:49:07;;;;;;;19.98;13.48;;;;;;;10.11;42.20;98085.47;10161828;29;20051;-78
2021/03/25 22:54:27;;;;;;;22.05;13.18;;;;;;;10.03;42.26;98090.44;10149190;29;20036;-78
2021/03/25 22:59:47;;;;;;;25.58;14.82;;;;;;;9.97;42.39;98090.00;10147185;29;20052;-78
2021/03/25 23:05:08;;;;;;;22.08;13.77;;;;;;;9.98;42.63;98074.72;10132650;29;20044;-78
2021/03/25 23:10:31;;;;;;;25.52;12.77;;;;;;;10.09;42.69;98082.53;10118727;29;20052;-78
2021/03/25 23:15:51;;;;;;;24.45;14.00;;;;;;;10.15;42.57;98090.63;10144699;29;20044;-78
2021/03/25 23:21:25;;;;;;;21.58;13.35;;;;;;;10.13;42.44;98087.66;10147760;29;20044;-78
2021/03/25 23:26:47;;;;;;;20.90;12.97;;;;;;;10.11;42.96;98093.09;10137180;29;20412;-78
2021/03/25 23:32:15;;;;;;;21.55;13.35;;;;;;;10.01;42.79;98085.44;10147864;29;20051;-78
2021/03/25 23:37:35;;;;;;;20.27;12.48;;;;;;;9.89;43.03;98087.31;10135439;29;20044;-79
2021/03/25 23:42:58;;;;;;;23.45;12.95;;;;;;;9.81;42.90;98092.28;10134821;29;20540;-78
2021/03/25 23:48:25;;;;;;;20.85;12.40;;;;;;;9.72;43.40;98090.94;10174031;29;20059;-78
2021/03/25 23:53:44;;;;;;;21.88;11.13;;;;;;;9.64;43.31;98095.16;10134611;29;20480;-78
2021/03/25 23:59:11;;;;;;;19.63;12.07;;;;;;;9.57;43.22;98090.44;10121168;29;20048;-78
